Time;durP1;ratioP1;P1;durP2;ratioP2;P2;SDS_P1;SDS_P2;PMS_P1;PMS_P2;Temp;Humidity;BMP_temperature;BMP_pressure;BME280_temperature;BME280_humidity;BME280_pressure;Samples;Min_cycle;Max_cycle;Signal;HPM_P1;HPM_P2
2021/10/30 00:04:28;;;;;;;3.03;2.53;;;18.10;61.90;;;;;;10575879;28;20706;-62
2021/10/30 00:09:50;;;;;;;3.00;2.43;;;18.20;61.70;;;;;;10577614;28;20225;-63
2021/10/30 00:15:13;;;;;;;4.33;2.77;;;18.10;61.60;;;;;;10582560;28;20191;-63
2021/10/30 00:20:36;;;;;;;2.93;2.13;;;18.10;61.70;;;;;;10582011;28;20219;-63
2021/10/30 00:25:58;;;;;;;2.93;2.50;;;18.10;61.80;;;;;;10546413;28;20195;-62
2021/10/30 00:31:20;;;;;;;3.90;2.60;;;18.10;62.40;;;;;;10539799;28;20238;-63
2021/10/30 00:36:44;;;;;;;2.73;2.43;;;18.10;62.20;;;;;;10540052;28;20195;-63
2021/10/30 00:42:06;;;;;;;2.60;2.40;;;18.10;61.80;;;;;;10539695;28;20231;-63
2021/10/30 00:47:28;;;;;;;4.67;2.50;;;18.20;61.60;;;;;;10539807;28;20222;-63
2021/10/30 00:52:53;;;;;;;3.63;2.37;;;18.10;61.50;;;;;;10538818;28;20234;-62
2021/10/30 00:58:16;;;;;;;3.00;2.30;;;18.10;61.50;;;;;;10543534;28;20226;-63
2021/10/30 01:03:39;;;;;;;2.80;2.40;;;18.00;61.60;;;;;;10543965;28;20207;-63
2021/10/30 01:09:02;;;;;;;2.47;2.23;;;18.10;62.20;;;;;;10539293;28;20203;-62
2021/10/30 01:14:25;;;;;;;4.67;2.80;;;18.10;62.20;;;;;;10544646;28;20212;-63
2021/10/30 01:19:51;;;;;;;4.67;2.70;;;18.20;61.80;;;;;;10495975;28;20189;-62
2021/10/30 01:25:14;;;;;;;2.70;2.40;;;18.10;61.50;;;;;;10552902;28;20187;-62
2021/10/30 01:30:36;;;;;;;3.80;2.40;;;18.10;61.40;;;;;;10579904;28;20315;-62
2021/10/30 01:36:06;;;;;;;2.63;2.43;;;18.10;61.50;;;;;;10580758;28;20598;-61
2021/10/30 01:41:28;;;;;;;2.17;1.97;;;18.00;61.50;;;;;;10516853;28;20217;-62
2021/10/30 01:46:56;;;;;;;3.17;2.47;;;18.10;61.90;;;;;;10495103;28;20719;-63
2021/10/30 01:52:20;;;;;;;3.40;2.70;;;18.10;61.60;;;;;;10494700;28;20216;-63
2021/10/30 01:57:42;;;;;;;3.20;2.50;;;18.10;61.40;;;;;;10537094;28;20198;-62
2021/10/30 02:03:04;;;;;;;3.47;2.20;;;18.10;61.40;;;;;;10577937;28;20211;-62
2021/10/30 02:08:28;;;;;;;2.43;2.23;;;18.00;61.30;;;;;;10578612;28;20203;-63
2021/10/30 02:13:50;;;;;;;2.70;2.30;;;18.00;61.50;;;;;;10578300;28;20227;-63
2021/10/30 02:19:12;;;;;;;4.47;2.30;;;17.90;61.40;;;;;;10577585;28;20574;-62
2021/10/30 02:24:36;;;;;;;3.13;2.40;;;18.00;61.50;;;;;;10553134;28;20211;-63
2021/10/30 02:29:58;;;;;;;2.43;2.23;;;18.00;61.30;;;;;;10535393;28;20227;-63
2021/10/30 02:35:20;;;;;;;3.07;2.30;;;18.00;61.10;;;;;;10498668;28;20204;-62
2021/10/30 02:40:44;;;;;;;2.90;2.30;;;18.00;61.10;;;;;;10493567;28;20220;-63
2021/10/30 02:46:06;;;;;;;2.73;2.43;;;18.00;61.10;;;;;;10493982;28;20199;-62
2021/10/30 02:51:28;;;;;;;2.77;2.33;;;17.90;61.20;;;;;;10494814;28;20223;-63
2021/10/30 02:56:52;;;;;;;3.40;2.67;;;17.90;61.30;;;;;;10520853;28;20207;-64
2021/10/30 03:02:14;;;;;;;3.33;2.43;;;17.90;61.20;;;;;;10537679;28;20223;-63
2021/10/30 03:07:37;;;;;;;3.13;2.43;;;17.90;61.10;;;;;;10532543;28;20203;-62
2021/10/30 03:13:01;;;;;;;2.90;2.60;;;18.00;61.10;;;;;;10533666;28;20227;-62
2021/10/30 03:18:23;;;;;;;3.27;2.40;;;18.00;60.90;;;;;;10534189;28;20187;-61
2021/10/30 03:23:45;;;;;;;2.20;2.00;;;18.00;60.80;;;;;;10550616;28;20215;-63
2021/10/30 03:29:08;;;;;;;3.20;2.70;;;17.90;60.90;;;;;;10575787;28;20206;-59
2021/10/30 03:34:31;;;;;;;2.87;2.60;;;17.90;61.00;;;;;;10575630;28;20215;-63
2021/10/30 03:39:53;;;;;;;3.17;2.87;;;17.90;61.00;;;;;;10518368;28;20200;-62
2021/10/30 03:45:17;;;;;;;4.17;2.97;;;17.90;61.00;;;;;;10497333;28;20196;-63
2021/10/30 03:50:39;;;;;;;2.90;2.37;;;18.00;60.80;;;;;;10499719;28;20238;-64
2021/10/30 03:56:01;;;;;;;3.00;2.50;;;18.00;60.70;;;;;;10519517;28;20611;-64
2021/10/30 04:01:25;;;;;;;4.00;2.67;;;18.00;60.60;;;;;;10568234;28;20573;-64
2021/10/30 04:06:47;;;;;;;3.77;2.50;;;17.90;60.70;;;;;;10567619;28;20202;-63
2021/10/30 04:12:10;;;;;;;3.47;2.90;;;17.90;60.80;;;;;;10582735;28;20223;-63
2021/10/30 04:17:33;;;;;;;3.47;2.80;;;17.80;60.90;;;;;;10582928;28;20194;-63
2021/10/30 04:22:56;;;;;;;4.50;2.70;;;17.80;60.90;;;;;;10554071;22;20591;-64
2021/10/30 04:28:19;;;;;;;5.63;2.77;;;17.80;60.90;;;;;;10482492;28;20219;-64
2021/10/30 04:33:44;;;;;;;3.87;2.60;;;17.80;61.00;;;;;;10451716;28;20656;-63
2021/10/30 04:39:06;;;;;;;3.53;2.60;;;17.80;61.00;;;;;;10415911;28;20194;-63
2021/10/30 04:44:28;;;;;;;2.87;2.33;;;17.90;61.70;;;;;;10416244;28;20206;-63
2021/10/30 04:49:51;;;;;;;2.93;2.63;;;17.90;61.80;;;;;;10415117;28;20198;-64
2021/10/30 04:55:13;;;;;;;3.33;2.63;;;18.00;61.50;;;;;;10423069;28;20209;-64
2021/10/30 05:00:36;;;;;;;3.27;2.43;;;18.10;61.60;;;;;;10431993;28;20187;-62
2021/10/30 05:05:59;;;;;;;2.80;2.03;;;18.10;61.30;;;;;;10427486;28;20194;-62
2021/10/30 05:11:21;;;;;;;2.23;2.00;;;18.10;61.30;;;;;;10446148;28;20221;-62
2021/10/30 05:16:43;;;;;;;3.10;2.30;;;18.10;61.10;;;;;;10456441;28;20201;-62
2021/10/30 05:22:07;;;;;;;2.43;2.23;;;18.20;61.20;;;;;;10452885;28;20226;-62
2021/10/30 05:27:29;;;;;;;3.83;2.57;;;18.20;61.10;;;;;;10413966;28;20193;-62
2021/10/30 05:32:51;;;;;;;3.67;2.90;;;18.20;60.70;;;;;;10428096;28;20232;-62
2021/10/30 05:38:16;;;;;;;2.37;2.13;;;18.20;60.90;;;;;;10454837;28;20702;-62
2021/10/30 05:43:39;;;;;;;4.57;2.33;;;18.20;60.80;;;;;;10455020;28;20220;-62
2021/10/30 05:49:01;;;;;;;2.70;2.50;;;18.20;60.80;;;;;;10455010;28;20197;-63
2021/10/30 05:54:25;;;;;;;3.03;2.63;;;18.20;60.80;;;;;;10453473;28;20228;-63
2021/10/30 05:59:47;;;;;;;3.00;2.40;;;18.30;60.60;;;;;;10413670;28;20194;-63
2021/10/30 06:05:10;;;;;;;3.47;2.30;;;18.20;60.20;;;;;;10412490;28;20218;-63
2021/10/30 06:10:34;;;;;;;3.13;2.70;;;18.20;60.20;;;;;;10411424;28;20190;-62
2021/10/30 06:15:56;;;;;;;2.83;2.47;;;18.20;60.50;;;;;;10412831;28;20217;-64
2021/10/30 06:21:18;;;;;;;2.87;2.63;;;18.30;60.50;;;;;;10411971;28;20232;-60
2021/10/30 06:26:41;;;;;;;3.03;2.50;;;18.20;60.40;;;;;;10451565;28;20197;-62
2021/10/30 06:32:04;;;;;;;3.07;2.77;;;18.30;60.50;;;;;;10453072;28;20232;-63
2021/10/30 06:37:27;;;;;;;3.57;3.17;;;18.30;60.00;;;;;;10452538;28;20200;-62
2021/10/30 06:42:50;;;;;;;5.37;3.70;;;18.30;59.10;;;;;;10452115;28;20597;-63
2021/10/30 06:48:12;;;;;;;3.13;2.83;;;18.30;58.70;;;;;;10452746;28;20197;-63
2021/10/30 06:53:34;;;;;;;3.30;2.93;;;18.40;58.50;;;;;;10451594;28;20224;-63
2021/10/30 06:58:58;;;;;;;3.27;2.63;;;18.40;59.30;;;;;;10441584;28;20216;-63
2021/10/30 07:04:20;;;;;;;5.20;4.10;;;18.30;59.60;;;;;;10436210;28;20913;-63
2021/10/30 07:09:42;;;;;;;4.00;3.30;;;19.10;56.80;;;;;;10410743;28;20189;-61
2021/10/30 07:15:07;;;;;;;4.87;3.03;;;18.60;58.50;;;;;;10410311;28;20217;-63
2021/10/30 07:20:29;;;;;;;4.40;3.43;;;18.50;59.30;;;;;;10413226;28;20201;-62
2021/10/30 07:25:51;;;;;;;3.50;3.00;;;18.40;59.60;;;;;;10442737;28;20200;-63
2021/10/30 07:31:15;;;;;;;3.17;2.63;;;18.40;59.80;;;;;;10448151;28;20219;-62
2021/10/30 07:36:37;;;;;;;3.33;3.03;;;18.40;59.90;;;;;;10417810;28;20197;-66
2021/10/30 07:42:00;;;;;;;3.17;2.53;;;18.30;59.90;;;;;;10450817;28;20668;-63
2021/10/30 07:47:23;;;;;;;2.80;2.57;;;18.30;59.90;;;;;;10449270;28;20201;-64
2021/10/30 07:52:45;;;;;;;5.53;3.00;;;18.30;59.90;;;;;;10443066;28;20228;-62
2021/10/30 07:58:08;;;;;;;3.20;2.60;;;18.30;59.90;;;;;;10440128;28;20205;-62
2021/10/30 08:03:31;;;;;;;2.60;2.40;;;18.30;59.90;;;;;;10450908;28;20224;-62
2021/10/30 08:08:53;;;;;;;2.93;2.73;;;18.30;59.90;;;;;;10444850;28;20197;-62
2021/10/30 08:14:15;;;;;;;2.67;2.47;;;18.30;59.80;;;;;;10451221;28;20232;-65
2021/10/30 08:19:39;;;;;;;2.60;2.37;;;18.30;60.00;;;;;;10450757;28;20694;-62
2021/10/30 08:25:01;;;;;;;3.37;2.27;;;18.30;60.10;;;;;;10424206;28;20237;-61
2021/10/30 08:30:24;;;;;;;2.50;2.10;;;18.30;60.00;;;;;;10410297;28;20194;-62
2021/10/30 08:35:47;;;;;;;2.97;2.20;;;18.30;60.70;;;;;;10442099;28;20206;-63
2021/10/30 08:41:09;;;;;;;2.43;2.10;;;18.30;60.30;;;;;;10455896;28;20232;-63
2021/10/30 08:46:32;;;;;;;2.67;2.43;;;18.30;60.40;;;;;;10456561;28;20197;-65
2021/10/30 08:51:55;;;;;;;2.40;2.20;;;18.30;60.30;;;;;;10455020;28;20216;-64
2021/10/30 08:57:17;;;;;;;3.40;2.10;;;18.30;60.40;;;;;;10457200;28;20204;-62
2021/10/30 09:02:39;;;;;;;3.73;2.00;;;18.30;60.40;;;;;;10442533;28;20689;-64
2021/10/30 09:08:05;;;;;;;3.23;1.97;;;18.30;60.40;;;;;;10421679;28;20653;-62
2021/10/30 09:13:29;;;;;;;2.70;2.00;;;18.30;60.50;;;;;;10429462;28;20213;-62
2021/10/30 09:18:51;;;;;;;2.23;2.00;;;18.30;60.60;;;;;;10414906;28;20576;-64
2021/10/30 09:24:15;;;;;;;1.93;1.77;;;18.30;61.20;;;;;;10433841;28;20240;-65
2021/10/30 09:29:53;;;;;;;2.00;1.83;;;18.30;60.70;;;;;;10454357;28;20203;-62
2021/10/30 09:35:28;;;;;;;2.07;1.77;;;18.40;60.70;;;;;;10447510;28;20221;-62
2021/10/30 09:40:51;;;;;;;2.03;1.83;;;18.30;60.70;;;;;;10454576;28;20576;-63
2021/10/30 09:46:15;;;;;;;3.60;2.13;;;18.30;60.70;;;;;;10454924;28;20683;-63
2021/10/30 09:51:38;;;;;;;2.63;1.90;;;18.30;60.60;;;;;;10454572;28;20228;-64
2021/10/30 09:57:02;;;;;;;2.10;1.90;;;18.30;60.70;;;;;;10455255;28;20208;-62
2021/10/30 10:02:25;;;;;;;2.60;2.00;;;18.30;60.70;;;;;;10453241;28;20213;-62
2021/10/30 10:07:49;;;;;;;3.93;2.30;;;18.30;60.70;;;;;;10454335;28;20193;-62
2021/10/30 10:13:14;;;;;;;3.50;2.00;;;18.40;61.40;;;;;;10438365;28;20303;-64
2021/10/30 10:18:36;;;;;;;3.30;1.80;;;18.30;60.80;;;;;;10453316;28;20699;-64
2021/10/30 10:23:59;;;;;;;3.10;1.70;;;18.30;60.90;;;;;;10495639;22;20231;-63
2021/10/30 10:29:33;;;;;;;2.00;1.80;;;18.40;61.00;;;;;;10514407;28;20192;-63
2021/10/30 10:35:05;;;;;;;2.57;1.80;;;18.30;61.50;;;;;;10511911;28;20247;-63
2021/10/30 10:40:28;;;;;;;2.10;1.90;;;18.40;61.00;;;;;;10494545;28;20192;-63
2021/10/30 10:45:52;;;;;;;2.50;1.90;;;18.30;61.00;;;;;;10510164;28;20224;-64
2021/10/30 10:51:22;;;;;;;2.43;1.97;;;18.40;61.00;;;;;;10536036;28;20552;-63
2021/10/30 10:56:57;;;;;;;2.07;1.70;;;18.30;60.90;;;;;;10535579;28;20196;-63
2021/10/30 11:02:21;;;;;;;2.00;1.80;;;18.30;60.90;;;;;;10519010;28;20341;-64
2021/10/30 11:07:59;;;;;;;2.43;2.10;;;18.30;61.00;;;;;;10536426;28;20572;-63
2021/10/30 11:13:22;;;;;;;2.53;1.83;;;18.30;61.00;;;;;;10506459;28;20212;-64
2021/10/30 11:19:00;;;;;;;2.77;1.93;;;18.40;61.10;;;;;;10461096;28;20233;-63
2021/10/30 11:24:27;;;;;;;2.63;1.97;;;18.30;61.10;;;;;;10472017;28;20221;-63
2021/10/30 11:29:51;;;;;;;2.30;2.10;;;18.40;61.20;;;;;;10488677;28;20589;-63
2021/10/30 11:35:15;;;;;;;1.90;1.77;;;18.40;61.20;;;;;;10497192;28;20227;-63
2021/10/30 11:40:52;;;;;;;2.63;1.53;;;18.40;61.30;;;;;;10493179;28;20196;-62
2021/10/30 11:46:16;;;;;;;2.10;1.80;;;18.40;61.30;;;;;;10468310;28;20209;-62
2021/10/30 11:51:41;;;;;;;2.47;2.10;;;18.30;61.40;;;;;;10455140;28;20208;-63
2021/10/30 11:57:05;;;;;;;3.63;2.20;;;18.40;61.50;;;;;;10448797;28;20636;-62
2021/10/30 12:02:27;;;;;;;2.47;1.97;;;18.40;61.50;;;;;;10450149;28;20584;-63
2021/10/30 12:07:50;;;;;;;2.50;1.90;;;18.40;61.60;;;;;;10456433;28;20189;-63
2021/10/30 12:13:16;;;;;;;3.63;2.30;;;18.40;62.30;;;;;;10483175;28;20220;-63
2021/10/30 12:18:38;;;;;;;2.97;2.23;;;18.30;61.60;;;;;;10484729;28;20199;-63
2021/10/30 12:24:04;;;;;;;2.70;2.20;;;18.30;61.70;;;;;;10507098;28;20220;-63
2021/10/30 12:29:28;;;;;;;2.43;2.03;;;18.30;61.80;;;;;;10477394;28;20184;-62
2021/10/30 12:34:58;;;;;;;2.60;2.10;;;18.30;61.90;;;;;;10499934;28;20711;-63
2021/10/30 12:40:33;;;;;;;2.80;2.10;;;18.40;62.20;;;;;;10499460;28;20200;-64
2021/10/30 12:45:58;;;;;;;2.90;1.90;;;18.30;61.90;;;;;;10496990;28;20221;-63
2021/10/30 12:51:26;;;;;;;4.07;2.13;;;18.40;62.00;;;;;;10497927;28;20583;-63
2021/10/30 12:56:50;;;;;;;2.40;2.20;;;18.30;61.90;;;;;;10498703;28;20208;-63
2021/10/30 13:02:24;;;;;;;3.27;2.40;;;18.30;62.00;;;;;;10457546;28;20201;-62
2021/10/30 13:07:55;;;;;;;2.77;2.50;;;18.30;61.90;;;;;;10473499;28;20193;-62
2021/10/30 13:13:18;;;;;;;2.90;2.30;;;18.30;61.90;;;;;;10484205;28;20224;-63
2021/10/30 13:18:42;;;;;;;4.10;2.57;;;18.40;62.00;;;;;;10497061;28;20181;-63
2021/10/30 13:24:05;;;;;;;2.77;2.40;;;18.40;62.00;;;;;;10499731;28;20302;-62
2021/10/30 13:29:30;;;;;;;3.57;2.50;;;18.30;62.00;;;;;;10468336;28;20601;-62
2021/10/30 13:34:52;;;;;;;3.17;2.53;;;18.40;62.00;;;;;;10455603;28;20232;-63
2021/10/30 13:40:15;;;;;;;3.47;2.40;;;18.40;62.00;;;;;;10454191;28;20201;-62
2021/10/30 13:45:38;;;;;;;3.23;2.60;;;18.30;62.00;;;;;;10475223;28;20221;-63
2021/10/30 13:51:00;;;;;;;4.70;2.60;;;18.30;62.00;;;;;;10455098;28;20200;-63
2021/10/30 13:56:23;;;;;;;3.40;2.60;;;18.40;62.10;;;;;;10455707;28;20279;-63
2021/10/30 14:01:47;;;;;;;3.13;2.53;;;18.30;62.00;;;;;;10454790;28;20198;-63
2021/10/30 14:07:09;;;;;;;3.70;2.83;;;18.30;62.00;;;;;;10460624;28;20186;-63
2021/10/30 14:12:31;;;;;;;3.20;2.90;;;18.40;62.10;;;;;;10484072;28;20286;-63
2021/10/30 14:17:54;;;;;;;4.23;2.60;;;18.40;62.20;;;;;;10474705;28;20201;-63
2021/10/30 14:23:17;;;;;;;3.03;2.40;;;18.40;62.20;;;;;;10504105;28;20219;-63
2021/10/30 14:28:40;;;;;;;3.53;2.73;;;18.40;62.20;;;;;;10536801;28;20337;-63
2021/10/30 14:34:03;;;;;;;3.67;3.07;;;18.40;62.30;;;;;;10535576;28;20222;-63
2021/10/30 14:39:26;;;;;;;3.47;2.87;;;18.40;62.30;;;;;;10536429;28;20203;-63
2021/10/30 14:44:48;;;;;;;3.10;2.80;;;18.40;62.30;;;;;;10536495;28;20218;-63
2021/10/30 14:50:12;;;;;;;3.40;2.67;;;18.30;62.20;;;;;;10536579;28;20556;-63
2021/10/30 14:55:34;;;;;;;2.57;2.30;;;18.30;62.20;;;;;;10493758;28;20223;-63
2021/10/30 15:00:56;;;;;;;3.97;2.60;;;18.40;62.30;;;;;;10492635;28;20196;-63
2021/10/30 15:06:19;;;;;;;3.73;2.60;;;18.40;62.30;;;;;;10499804;28;20216;-63
2021/10/30 15:11:41;;;;;;;3.73;2.70;;;18.40;62.30;;;;;;10493637;28;20200;-63
2021/10/30 15:17:04;;;;;;;3.00;2.70;;;18.40;62.30;;;;;;10486448;28;20199;-62
2021/10/30 15:22:27;;;;;;;4.60;2.97;;;18.40;62.30;;;;;;10487151;28;20223;-63
2021/10/30 15:27:49;;;;;;;3.33;2.63;;;18.40;62.20;;;;;;10481566;28;20196;-63
2021/10/30 15:33:11;;;;;;;3.60;2.90;;;18.40;62.20;;;;;;10535260;28;20219;-62
2021/10/30 15:38:35;;;;;;;4.67;3.20;;;18.40;62.40;;;;;;10535338;28;20215;-62
2021/10/30 15:43:57;;;;;;;3.10;2.80;;;18.40;62.30;;;;;;10543108;28;20242;-63
2021/10/30 15:49:19;;;;;;;4.00;3.03;;;18.40;62.30;;;;;;10542782;28;20266;-63
2021/10/30 15:54:43;;;;;;;3.47;3.07;;;18.40;62.30;;;;;;10543512;28;20231;-63
2021/10/30 16:00:06;;;;;;;3.90;3.10;;;18.40;62.20;;;;;;10532706;28;20934;-62
2021/10/30 16:05:28;;;;;;;4.40;3.27;;;18.40;62.20;;;;;;10534291;28;20587;-63
2021/10/30 16:10:53;;;;;;;4.87;3.37;;;18.40;62.10;;;;;;10541024;28;20499;-63
2021/10/30 16:16:15;;;;;;;3.67;3.23;;;18.30;62.00;;;;;;10542817;28;20211;-63
2021/10/30 16:21:37;;;;;;;3.97;3.40;;;18.40;62.10;;;;;;10542228;28;20578;-64
2021/10/30 16:27:00;;;;;;;4.23;3.57;;;18.40;62.00;;;;;;10497351;22;20579;-65
2021/10/30 16:32:22;;;;;;;4.37;3.47;;;18.40;62.00;;;;;;10423595;28;20228;-64
2021/10/30 16:37:45;;;;;;;4.67;4.03;;;18.40;62.00;;;;;;10415897;28;20206;-64
2021/10/30 16:43:10;;;;;;;5.10;4.07;;;18.30;61.90;;;;;;10415233;28;20678;-65
2021/10/30 16:48:33;;;;;;;6.00;3.33;;;18.40;62.00;;;;;;10413952;28;20217;-65
2021/10/30 16:53:55;;;;;;;5.10;3.90;;;18.40;61.90;;;;;;10412844;28;20210;-65
2021/10/30 16:59:19;;;;;;;4.73;4.10;;;18.30;61.80;;;;;;10414538;28;20218;-64
2021/10/30 17:04:41;;;;;;;4.23;3.60;;;18.40;61.90;;;;;;10413949;28;20659;-65
2021/10/30 17:10:04;;;;;;;3.83;3.27;;;18.40;61.90;;;;;;10416635;28;20217;-64
2021/10/30 17:15:27;;;;;;;4.23;3.60;;;18.40;61.90;;;;;;10431379;28;20220;-64
2021/10/30 17:20:50;;;;;;;5.07;3.87;;;18.40;61.90;;;;;;10454918;28;20224;-64
2021/10/30 17:26:12;;;;;;;4.50;3.80;;;18.30;62.10;;;;;;10454229;28;20205;-63
2021/10/30 17:31:36;;;;;;;5.87;4.00;;;18.30;61.90;;;;;;10454834;28;20975;-65
2021/10/30 17:36:58;;;;;;;4.67;3.73;;;18.40;61.90;;;;;;10455055;28;20582;-65
2021/10/30 17:42:20;;;;;;;5.40;4.13;;;18.40;62.00;;;;;;10454204;28;20428;-64
2021/10/30 17:47:44;;;;;;;4.77;4.27;;;18.40;62.00;;;;;;10455589;28;20558;-64
2021/10/30 17:53:06;;;;;;;4.80;3.80;;;18.40;62.00;;;;;;10454126;28;20720;-64
2021/10/30 17:58:29;;;;;;;5.60;4.03;;;18.40;61.90;;;;;;10452086;28;20221;-65
2021/10/30 18:03:53;;;;;;;4.27;3.87;;;18.40;61.90;;;;;;10454377;28;20193;-63
2021/10/30 18:09:15;;;;;;;5.77;4.17;;;18.40;61.90;;;;;;10453552;28;20224;-65
2021/10/30 18:14:37;;;;;;;4.53;4.10;;;18.40;61.90;;;;;;10440829;28;20218;-64
2021/10/30 18:20:01;;;;;;;5.43;3.90;;;18.40;61.90;;;;;;10417121;28;20227;-64
2021/10/30 18:25:23;;;;;;;6.37;4.33;;;18.40;61.90;;;;;;10421081;28;20204;-65
2021/10/30 18:30:46;;;;;;;4.80;4.30;;;18.40;61.90;;;;;;10410896;28;20226;-64
2021/10/30 18:36:10;;;;;;;4.83;4.33;;;18.40;61.70;;;;;;10432585;28;20239;-64
2021/10/30 18:41:34;;;;;;;5.43;4.27;;;18.40;61.80;;;;;;10421692;28;20220;-64
2021/10/30 18:46:56;;;;;;;4.80;4.30;;;18.40;61.60;;;;;;10411115;28;20190;-64
2021/10/30 18:52:20;;;;;;;4.23;3.83;;;18.40;61.60;;;;;;10426512;28;20228;-64
2021/10/30 18:57:42;;;;;;;4.83;4.20;;;18.40;61.60;;;;;;10425398;28;20213;-64
2021/10/30 19:03:05;;;;;;;6.00;4.47;;;18.40;61.60;;;;;;10430514;28;20201;-64
2021/10/30 19:08:28;;;;;;;5.47;4.37;;;18.40;61.50;;;;;;10407134;28;20245;-64
2021/10/30 19:13:50;;;;;;;4.97;4.30;;;18.40;61.50;;;;;;10420923;28;20229;-64
2021/10/30 19:19:14;;;;;;;4.70;4.17;;;18.40;61.50;;;;;;10424537;28;20221;-64
2021/10/30 19:24:37;;;;;;;4.40;4.00;;;18.40;61.50;;;;;;10412331;28;21038;-64
2021/10/30 19:30:00;;;;;;;4.43;4.00;;;18.40;61.50;;;;;;10405396;28;20224;-64
2021/10/30 19:35:23;;;;;;;4.70;4.00;;;18.40;61.50;;;;;;10404659;28;20221;-64
2021/10/30 19:40:46;;;;;;;5.07;4.30;;;18.40;61.50;;;;;;10407905;28;20229;-64
2021/10/30 19:46:08;;;;;;;6.37;4.80;;;18.40;61.50;;;;;;10417051;28;20200;-64
2021/10/30 19:51:31;;;;;;;4.30;3.87;;;18.40;61.40;;;;;;10434342;28;20218;-63
2021/10/30 19:56:54;;;;;;;4.40;3.90;;;18.40;61.50;;;;;;10450949;28;20220;-63
2021/10/30 20:02:17;;;;;;;4.43;4.03;;;18.40;61.60;;;;;;10437369;28;20619;-64
2021/10/30 20:07:39;;;;;;;4.67;4.00;;;18.40;61.60;;;;;;10445144;28;20682;-64
2021/10/30 20:13:03;;;;;;;4.50;4.07;;;18.40;61.60;;;;;;10414466;28;20658;-64
2021/10/30 20:18:25;;;;;;;4.50;3.80;;;18.40;61.60;;;;;;10445928;28;20212;-64
2021/10/30 20:23:47;;;;;;;3.97;3.57;;;18.40;61.80;;;;;;10448800;28;20197;-64
2021/10/30 20:29:11;;;;;;;3.57;3.27;;;18.50;61.80;;;;;;10454367;28;20213;-64
2021/10/30 20:34:33;;;;;;;3.87;3.47;;;18.40;61.80;;;;;;10457514;28;20582;-65
2021/10/30 20:39:56;;;;;;;3.60;3.30;;;18.40;61.80;;;;;;10425342;28;20229;-64
2021/10/30 20:45:20;;;;;;;4.73;3.23;;;18.40;61.90;;;;;;10450866;28;20731;-64
2021/10/30 20:50:42;;;;;;;4.00;3.30;;;18.40;62.00;;;;;;10418515;28;20690;-64
2021/10/30 20:56:05;;;;;;;3.97;3.57;;;18.40;62.10;;;;;;10423976;28;20214;-64
2021/10/30 21:01:28;;;;;;;3.80;3.30;;;18.40;62.00;;;;;;10422647;28;20221;-64
2021/10/30 21:06:51;;;;;;;4.07;3.67;;;18.40;62.00;;;;;;10431616;28;20198;-65
2021/10/30 21:12:14;;;;;;;4.97;3.47;;;18.40;62.00;;;;;;10414166;28;20729;-65
2021/10/30 21:17:37;;;;;;;5.67;3.80;;;18.30;62.10;;;;;;10435142;28;20213;-65
2021/10/30 21:22:59;;;;;;;4.83;3.90;;;18.30;62.20;;;;;;10420969;28;20209;-65
2021/10/30 21:28:21;;;;;;;4.60;3.60;;;18.20;62.40;;;;;;10422569;28;20225;-65
2021/10/30 21:33:45;;;;;;;4.00;3.60;;;18.10;62.60;;;;;;10413608;28;20229;-65
2021/10/30 21:39:07;;;;;;;3.97;3.57;;;18.10;62.90;;;;;;10417826;28;20226;-64
2021/10/30 21:44:29;;;;;;;4.83;3.80;;;18.10;63.20;;;;;;10441959;28;20281;-64
2021/10/30 21:49:53;;;;;;;3.90;3.50;;;18.10;63.40;;;;;;10412489;28;20222;-64
2021/10/30 21:55:15;;;;;;;6.03;3.73;;;18.10;63.50;;;;;;10415124;28;20240;-65
2021/10/30 22:00:46;;;;;;;4.87;3.67;;;18.20;63.50;;;;;;10453243;28;20297;-64
2021/10/30 22:06:11;;;;;;;4.90;4.10;;;18.20;63.50;;;;;;10430647;28;20575;-64
2021/10/30 22:11:33;;;;;;;4.93;3.73;;;18.20;63.50;;;;;;10411623;28;20296;-65
2021/10/30 22:16:55;;;;;;;4.47;3.70;;;18.10;63.60;;;;;;10411770;28;20307;-64
2021/10/30 22:22:19;;;;;;;4.40;3.50;;;18.10;63.80;;;;;;10413973;28;20579;-65
2021/10/30 22:27:41;;;;;;;5.27;3.90;;;18.10;63.90;;;;;;10412575;28;20652;-65
2021/10/30 22:33:04;;;;;;;5.80;4.33;;;18.00;64.00;;;;;;10444272;22;20250;-64
2021/10/30 22:38:28;;;;;;;6.57;4.03;;;18.00;64.20;;;;;;10525103;28;20223;-64
2021/10/30 22:43:50;;;;;;;4.60;4.10;;;18.00;64.40;;;;;;10520083;28;20211;-64
2021/10/30 22:49:12;;;;;;;5.27;3.07;;;18.00;64.40;;;;;;10531351;28;20203;-65
2021/10/30 22:54:36;;;;;;;4.93;3.53;;;18.00;64.40;;;;;;10524808;28;20231;-63
2021/10/30 22:59:58;;;;;;;4.43;3.80;;;18.10;64.30;;;;;;10459042;28;20205;-65
2021/10/30 23:05:20;;;;;;;6.43;3.90;;;18.10;64.20;;;;;;10508222;28;20211;-64
2021/10/30 23:10:45;;;;;;;4.77;3.53;;;18.10;64.10;;;;;;10453485;28;20208;-64
2021/10/30 23:16:07;;;;;;;4.47;3.70;;;18.10;64.20;;;;;;10504825;28;20220;-64
2021/10/30 23:21:30;;;;;;;4.20;3.17;;;18.10;64.30;;;;;;10523951;28;20206;-64
2021/10/30 23:26:54;;;;;;;3.73;3.30;;;18.00;64.30;;;;;;10504692;28;20219;-65
2021/10/30 23:32:16;;;;;;;4.87;3.03;;;18.00;64.60;;;;;;10493756;28;20672;-65
2021/10/30 23:37:38;;;;;;;3.10;2.80;;;17.90;64.60;;;;;;10493495;28;20591;-65
2021/10/30 23:43:01;;;;;;;3.87;3.10;;;17.90;64.80;;;;;;10454062;28;20209;-64
2021/10/30 23:48:24;;;;;;;5.53;3.10;;;17.90;64.80;;;;;;10452421;28;20564;-64
2021/10/30 23:53:47;;;;;;;3.50;3.20;;;18.00;64.80;;;;;;10451721;28;20592;-64
2021/10/30 23:59:10;;;;;;;3.20;2.90;;;18.00;64.70;;;;;;10451501;28;20197;-64
